createdAt,value
2022-09-15T00:01:16.660Z,24.40
2022-09-15T00:03:45.072Z,24.36
2022-09-15T00:06:13.676Z,24.32
2022-09-15T00:08:42.193Z,24.31
2022-09-15T00:11:12.763Z,24.25
2022-09-15T00:13:41.344Z,24.22
2022-09-15T00:16:14.617Z,24.13
2022-09-15T00:18:43.315Z,24.07
2022-09-15T00:21:13.691Z,24.03
2022-09-15T00:23:41.967Z,24.02
2022-09-15T00:26:11.616Z,24.02
2022-09-15T00:28:40.119Z,24.01
2022-09-15T00:31:09.769Z,23.98
2022-09-15T00:33:38.034Z,23.92
2022-09-15T00:36:07.383Z,23.88
2022-09-15T00:38:37.012Z,23.92
2022-09-15T00:41:06.151Z,23.91
2022-09-15T00:43:46.277Z,23.85
2022-09-15T00:46:15.043Z,23.81
2022-09-15T00:48:49.552Z,23.79
2022-09-15T00:51:20.411Z,23.83
2022-09-15T00:53:49.558Z,23.80
2022-09-15T00:56:19.732Z,23.77
2022-09-15T00:58:54.824Z,23.75
2022-09-15T01:01:24.958Z,23.66
2022-09-15T01:03:53.493Z,23.54
2022-09-15T01:06:25.395Z,23.56
2022-09-15T01:09:02.985Z,23.64
2022-09-15T01:11:31.571Z,23.64
2022-09-15T01:13:59.692Z,23.48
2022-09-15T01:16:46.313Z,23.40
2022-09-15T01:19:33.491Z,23.28
2022-09-15T01:22:16.577Z,23.19
2022-09-15T01:24:47.132Z,23.16
2022-09-15T01:27:41.214Z,23.16
2022-09-15T01:30:11.935Z,23.11
2022-09-15T01:33:07.154Z,23.07
2022-09-15T01:35:35.361Z,22.97
2022-09-15T01:38:03.311Z,22.89
2022-09-15T01:40:34.968Z,22.82
2022-09-15T01:43:03.451Z,22.75
2022-09-15T01:45:33.931Z,22.70
2022-09-15T01:48:03.451Z,22.66
2022-09-15T01:50:34.823Z,22.63
2022-09-15T01:53:05.447Z,22.58
2022-09-15T01:55:50.036Z,22.54
2022-09-15T01:58:18.024Z,22.51
2022-09-15T02:00:49.098Z,22.41
2022-09-15T02:03:23.301Z,22.31
2022-09-15T02:06:03.790Z,22.22
2022-09-15T02:08:31.786Z,22.14
2022-09-15T02:11:22.351Z,22.09
2022-09-15T02:13:50.452Z,22.04
2022-09-15T02:16:22.871Z,21.97
2022-09-15T02:19:17.171Z,21.91
2022-09-15T02:21:54.352Z,21.84
2022-09-15T02:24:31.616Z,21.77
2022-09-15T02:27:02.187Z,21.71
2022-09-15T02:29:33.064Z,21.67
2022-09-15T02:32:07.005Z,21.64
2022-09-15T02:34:37.811Z,21.62
2022-09-15T02:37:06.665Z,21.57
2022-09-15T02:39:37.710Z,21.50
2022-09-15T02:42:06.197Z,21.44
2022-09-15T02:44:34.613Z,21.39
2022-09-15T02:47:03.131Z,21.35
2022-09-15T02:49:31.632Z,21.31
2022-09-15T02:51:59.776Z,21.29
2022-09-15T02:54:27.889Z,21.25
2022-09-15T02:56:55.946Z,21.23
2022-09-15T02:59:23.934Z,21.23
2022-09-15T03:01:53.254Z,21.20
2022-09-15T03:04:21.387Z,21.17
2022-09-15T03:06:49.389Z,21.12
2022-09-15T03:09:17.509Z,21.11
2022-09-15T03:11:45.507Z,21.09
2022-09-15T03:14:13.946Z,21.06
2022-09-15T03:16:41.998Z,21.02
2022-09-15T03:19:10.037Z,20.98
2022-09-15T03:21:38.831Z,20.91
2022-09-15T03:24:07.152Z,20.86
2022-09-15T03:26:35.207Z,20.82
2022-09-15T03:29:03.271Z,20.79
2022-09-15T03:31:31.354Z,20.76
2022-09-15T03:33:59.471Z,20.68
2022-09-15T03:36:27.629Z,20.64
2022-09-15T03:38:57.213Z,20.63
2022-09-15T03:41:26.203Z,20.57
2022-09-15T03:43:54.189Z,20.56
2022-09-15T03:46:22.292Z,20.56
2022-09-15T03:48:50.346Z,20.57
2022-09-15T03:51:18.361Z,20.57
2022-09-15T03:53:46.387Z,20.51
2022-09-15T03:56:24.262Z,20.51
2022-09-15T03:58:52.934Z,20.49
2022-09-15T04:01:21.478Z,20.46
2022-09-15T04:03:51.413Z,20.35
2022-09-15T04:06:20.581Z,20.23
2022-09-15T04:08:49.371Z,20.16
2022-09-15T04:11:18.127Z,20.10
2022-09-15T04:13:46.506Z,20.07
2022-09-15T04:16:19.030Z,20.03
2022-09-15T04:18:47.467Z,19.99
2022-09-15T04:21:17.141Z,19.94
2022-09-15T04:23:45.691Z,19.93
2022-09-15T04:26:33.965Z,19.91
2022-09-15T04:29:04.540Z,19.88
2022-09-15T04:31:33.777Z,19.83
2022-09-15T04:34:01.889Z,19.84
2022-09-15T04:36:30.511Z,19.81
2022-09-15T04:38:59.321Z,19.75
2022-09-15T04:41:28.108Z,19.70
2022-09-15T04:43:56.426Z,19.64
2022-09-15T04:46:24.556Z,19.61
2022-09-15T04:48:53.030Z,19.60
2022-09-15T04:51:22.666Z,19.56
2022-09-15T04:53:51.532Z,19.53
2022-09-15T04:56:21.671Z,19.55
2022-09-15T04:58:54.026Z,19.55
2022-09-15T05:01:26.864Z,19.53
2022-09-15T05:03:55.144Z,19.49
2022-09-15T05:06:25.221Z,19.52
2022-09-15T05:08:54.350Z,19.52
2022-09-15T05:11:22.826Z,19.44
2022-09-15T05:13:51.312Z,19.39
2022-09-15T05:16:21.753Z,19.37
2022-09-15T05:18:51.266Z,19.37
2022-09-15T05:21:20.278Z,19.35
2022-09-15T05:23:48.997Z,19.32
2022-09-15T05:26:18.612Z,19.34
2022-09-15T05:28:46.986Z,19.34
2022-09-15T05:31:19.392Z,19.29
2022-09-15T05:33:48.571Z,19.26
2022-09-15T05:36:16.865Z,19.25
2022-09-15T05:38:45.511Z,19.25
2022-09-15T05:41:20.586Z,19.27
2022-09-15T05:43:49.329Z,19.28
2022-09-15T05:46:18.441Z,19.25
2022-09-15T05:48:46.968Z,19.22
2022-09-15T05:51:15.787Z,19.18
2022-09-15T05:53:43.895Z,19.21
2022-09-15T05:56:13.241Z,19.23
2022-09-15T05:58:42.188Z,19.26
2022-09-15T06:01:13.018Z,19.27
2022-09-15T06:03:41.711Z,19.27
2022-09-15T06:06:09.751Z,19.24
2022-09-15T06:08:41.465Z,19.25
2022-09-15T06:11:14.151Z,19.23
2022-09-15T06:13:42.549Z,19.24
2022-09-15T06:16:11.682Z,19.25
2022-09-15T06:18:40.266Z,19.25
2022-09-15T06:21:10.026Z,19.26
2022-09-15T06:23:38.451Z,19.27
2022-09-15T06:26:14.451Z,19.28
2022-09-15T06:28:43.787Z,19.30
2022-09-15T06:31:15.312Z,19.28
2022-09-15T06:33:47.829Z,19.29
2022-09-15T06:36:16.581Z,19.32
2022-09-15T06:38:44.987Z,19.34
2022-09-15T06:41:13.698Z,19.35
2022-09-15T06:43:42.268Z,19.38
2022-09-15T06:46:11.992Z,19.35
2022-09-15T06:48:41.072Z,19.33
2022-09-15T06:51:11.791Z,19.37
2022-09-15T06:53:40.582Z,19.40
2022-09-15T06:56:08.591Z,19.38
2022-09-15T06:58:37.214Z,19.36
2022-09-15T07:01:06.336Z,19.33
2022-09-15T07:03:34.452Z,19.34
2022-09-15T07:06:02.822Z,19.37
2022-09-15T07:08:30.951Z,19.37
2022-09-15T07:10:59.389Z,19.37
2022-09-15T07:13:27.571Z,19.39
2022-09-15T07:15:57.102Z,19.39
2022-09-15T07:18:25.551Z,19.37
2022-09-15T07:20:53.707Z,19.39
2022-09-15T07:23:21.707Z,19.38
2022-09-15T07:25:49.706Z,19.39
2022-09-15T07:28:18.456Z,19.40
2022-09-15T07:30:46.837Z,19.40
2022-09-15T07:33:15.016Z,19.41
2022-09-15T07:35:44.132Z,19.41
2022-09-15T07:38:12.426Z,19.41
2022-09-15T07:40:40.499Z,19.41
2022-09-15T07:43:08.671Z,19.42
2022-09-15T07:45:37.192Z,19.41
2022-09-15T07:48:05.388Z,19.39
2022-09-15T07:50:33.693Z,19.37
2022-09-15T07:53:01.860Z,19.36
2022-09-15T07:55:31.366Z,19.33
2022-09-15T07:58:00.511Z,19.31
2022-09-15T08:00:29.102Z,19.27
2022-09-15T08:02:57.551Z,19.22
2022-09-15T08:05:29.559Z,19.21
2022-09-15T08:07:57.612Z,19.17
2022-09-15T08:10:29.191Z,19.17
2022-09-15T08:12:57.230Z,19.18
2022-09-15T08:15:25.546Z,19.17
2022-09-15T08:17:56.427Z,19.17
2022-09-15T08:20:24.432Z,19.15
2022-09-15T08:22:52.556Z,19.13
2022-09-15T08:25:20.586Z,19.10
2022-09-15T08:27:48.695Z,19.09
2022-09-15T08:30:16.833Z,19.06
2022-09-15T08:32:45.051Z,19.01
2022-09-15T08:35:13.046Z,18.94
2022-09-15T08:37:41.511Z,18.88
2022-09-15T08:40:17.289Z,18.82
2022-09-15T08:42:46.309Z,18.73
2022-09-15T08:45:37.191Z,18.64
2022-09-15T08:48:08.646Z,18.55
2022-09-15T08:50:41.851Z,18.49
2022-09-15T08:53:14.013Z,18.40
2022-09-15T08:55:53.860Z,18.34
2022-09-15T08:58:23.301Z,18.28
2022-09-15T09:00:53.333Z,18.22
2022-09-15T09:03:40.101Z,18.14
2022-09-15T09:06:15.772Z,18.10
2022-09-15T09:08:46.611Z,18.05
2022-09-15T09:11:20.426Z,17.98
2022-09-15T09:14:02.504Z,17.90
2022-09-15T09:16:30.510Z,17.85
2022-09-15T09:18:58.513Z,17.80
2022-09-15T09:21:31.289Z,17.75
2022-09-15T09:23:59.289Z,17.67
2022-09-15T09:26:29.536Z,17.61
2022-09-15T09:29:01.711Z,17.56
2022-09-15T09:31:30.570Z,17.52
2022-09-15T09:34:07.272Z,17.49
2022-09-15T09:36:35.306Z,17.46
2022-09-15T09:39:04.911Z,17.41
2022-09-15T09:41:37.532Z,17.37
2022-09-15T09:44:07.803Z,17.31
2022-09-15T09:46:36.167Z,17.28
2022-09-15T09:49:13.702Z,17.23
2022-09-15T09:52:03.467Z,17.19
2022-09-15T09:54:33.706Z,17.13
2022-09-15T09:57:20.263Z,17.09
2022-09-15T09:59:49.545Z,17.05
2022-09-15T10:02:19.304Z,17.00
2022-09-15T10:04:51.710Z,16.98
2022-09-15T10:07:21.706Z,16.96
2022-09-15T10:09:51.621Z,16.94
2022-09-15T10:12:39.781Z,16.92
2022-09-15T10:15:09.384Z,16.90
2022-09-15T10:17:37.384Z,16.86
2022-09-15T10:20:07.627Z,16.81
2022-09-15T10:22:35.630Z,16.75
2022-09-15T10:25:05.706Z,16.72
2022-09-15T10:27:35.628Z,16.68
2022-09-15T10:30:15.972Z,16.67
2022-09-15T10:32:44.321Z,16.62
2022-09-15T10:35:17.704Z,16.58
2022-09-15T10:37:45.755Z,16.58
2022-09-15T10:40:32.073Z,16.58
2022-09-15T10:43:23.619Z,16.50
2022-09-15T10:45:57.402Z,16.44
2022-09-15T10:48:31.311Z,16.41
2022-09-15T10:50:59.410Z,16.40
2022-09-15T10:53:33.651Z,16.38
2022-09-15T10:56:26.992Z,16.38
2022-09-15T10:59:01.971Z,16.36
2022-09-15T11:01:36.592Z,16.31
2022-09-15T11:04:22.986Z,16.29
2022-09-15T11:07:06.331Z,16.28
2022-09-15T11:09:41.971Z,16.26
2022-09-15T11:12:18.186Z,16.26
2022-09-15T11:15:06.350Z,16.23
2022-09-15T11:17:54.511Z,16.19
2022-09-15T11:20:40.871Z,16.19
2022-09-15T11:23:18.828Z,16.19
2022-09-15T11:25:51.153Z,16.14
2022-09-15T11:28:23.887Z,16.11
2022-09-15T11:30:54.601Z,16.08
2022-09-15T11:33:26.514Z,16.07
2022-09-15T11:36:01.390Z,16.04
2022-09-15T11:38:39.589Z,16.03
2022-09-15T11:41:10.509Z,16.02
2022-09-15T11:43:38.617Z,16.00
2022-09-15T11:46:10.998Z,16.01
2022-09-15T11:48:45.071Z,16.01
2022-09-15T11:51:16.249Z,15.99
2022-09-15T11:54:00.109Z,15.98
2022-09-15T11:56:36.426Z,15.99
2022-09-15T11:59:13.546Z,15.97
2022-09-15T12:01:47.548Z,15.97
2022-09-15T12:04:25.011Z,15.95
2022-09-15T12:06:56.777Z,15.95
2022-09-15T12:09:24.911Z,15.94
2022-09-15T12:11:55.787Z,15.92
2022-09-15T12:14:36.334Z,15.89
2022-09-15T12:17:06.984Z,15.87
2022-09-15T12:19:34.986Z,15.87
2022-09-15T12:22:08.901Z,15.87
2022-09-15T12:24:44.912Z,15.87
2022-09-15T12:27:19.866Z,15.89
2022-09-15T12:29:52.091Z,15.90
2022-09-15T12:32:21.011Z,15.90
2022-09-15T12:34:59.626Z,15.89
2022-09-15T12:37:31.273Z,15.88
2022-09-15T12:39:59.493Z,15.88
2022-09-15T12:42:35.630Z,15.88
2022-09-15T12:45:08.429Z,15.88
2022-09-15T12:47:39.467Z,15.89
2022-09-15T12:50:29.019Z,15.87
2022-09-15T12:53:01.538Z,15.88
2022-09-15T12:55:32.752Z,15.89
2022-09-15T12:58:02.341Z,15.88
2022-09-15T13:00:33.697Z,15.85
2022-09-15T13:03:02.886Z,15.84
2022-09-15T13:05:59.977Z,15.82
2022-09-15T13:08:30.986Z,15.82
2022-09-15T13:11:02.138Z,15.81
2022-09-15T13:13:41.029Z,15.79
2022-09-15T13:16:13.711Z,15.78
2022-09-15T13:18:43.462Z,15.76
2022-09-15T13:21:14.334Z,15.76
2022-09-15T13:23:46.201Z,15.76
2022-09-15T13:26:17.701Z,15.75
2022-09-15T13:28:45.965Z,15.74
2022-09-15T13:31:25.565Z,15.71
2022-09-15T13:40:03.528Z,15.68
2022-09-15T13:42:44.427Z,15.66
2022-09-15T13:45:18.024Z,15.65
2022-09-15T13:48:18.188Z,15.65
2022-09-15T13:50:52.436Z,15.63
2022-09-15T13:53:33.405Z,15.64
2022-09-15T13:56:04.421Z,15.65
2022-09-15T14:01:26.252Z,15.60
2022-09-15T14:03:59.573Z,15.61
2022-09-15T14:06:31.317Z,15.60
2022-09-15T14:09:01.546Z,15.63
2022-09-15T14:11:31.790Z,15.66
2022-09-15T14:14:04.091Z,15.69
2022-09-15T14:16:34.893Z,15.72
2022-09-15T14:19:04.906Z,15.72
2022-09-15T14:21:34.347Z,15.74
2022-09-15T14:24:08.089Z,15.76
2022-09-15T14:26:37.545Z,15.81
2022-09-15T14:29:07.141Z,15.84
2022-09-15T14:31:35.223Z,15.89
2022-09-15T14:34:04.267Z,15.94
2022-09-15T14:36:33.736Z,15.98
2022-09-15T14:39:14.063Z,16.00
2022-09-15T14:41:42.436Z,16.05
2022-09-15T14:47:28.875Z,16.13
2022-09-15T14:50:10.829Z,16.18
2022-09-15T14:52:42.661Z,16.23
2022-09-15T14:55:14.319Z,16.28
2022-09-15T14:57:45.638Z,16.34
2022-09-15T15:00:16.906Z,16.43
2022-09-15T15:02:44.845Z,16.53
2022-09-15T15:05:18.662Z,16.63
2022-09-15T15:07:47.411Z,16.74
2022-09-15T15:10:18.506Z,16.83
2022-09-15T15:12:52.256Z,16.92
2022-09-15T15:15:21.051Z,16.99
2022-09-15T15:17:50.828Z,17.06
2022-09-15T15:20:20.906Z,17.17
2022-09-15T15:22:49.546Z,17.26
2022-09-15T15:25:26.454Z,17.30
2022-09-15T15:27:58.981Z,17.29
2022-09-15T15:30:32.981Z,17.35
2022-09-15T15:33:02.897Z,17.46
2022-09-15T15:35:32.106Z,17.55
2022-09-15T15:38:15.611Z,17.62
2022-09-15T15:40:44.571Z,17.73
2022-09-15T15:43:21.991Z,17.84
2022-09-15T15:45:52.049Z,17.96
2022-09-15T15:48:20.111Z,18.05
2022-09-15T15:50:48.767Z,18.12
2022-09-15T15:53:16.818Z,18.16
2022-09-15T15:55:45.873Z,18.12
2022-09-15T15:58:14.824Z,18.13
2022-09-15T16:00:47.514Z,18.23
2022-09-15T16:03:17.156Z,18.33
2022-09-15T16:05:49.971Z,18.43
2022-09-15T16:08:26.972Z,18.48
2022-09-15T16:10:55.781Z,18.54
2022-09-15T16:13:24.514Z,18.57
2022-09-15T16:15:57.658Z,18.67
2022-09-15T16:18:25.886Z,18.78
2022-09-15T16:20:54.102Z,18.79
2022-09-15T16:23:26.372Z,18.82
2022-09-15T16:25:54.508Z,18.85
2022-09-15T16:28:22.924Z,18.84
2022-09-15T16:30:50.963Z,18.92
2022-09-15T16:33:19.981Z,18.97
2022-09-15T16:35:53.452Z,19.03
2022-09-15T16:38:22.036Z,19.17
2022-09-15T16:40:52.102Z,19.31
2022-09-15T16:43:24.494Z,19.41
2022-09-15T16:45:53.406Z,19.55
2022-09-15T16:48:21.521Z,19.63
2022-09-15T16:53:40.497Z,19.77
2022-09-15T16:56:11.340Z,19.84
2022-09-15T16:58:39.457Z,19.85
2022-09-15T17:01:08.008Z,19.81
2022-09-15T17:03:36.357Z,19.80
2022-09-15T17:06:04.391Z,19.80
2022-09-15T17:08:33.517Z,19.76
2022-09-15T17:11:03.039Z,19.72
2022-09-15T17:13:33.056Z,19.88
2022-09-15T17:16:01.945Z,19.97
2022-09-15T17:18:30.351Z,20.08
2022-09-15T17:20:58.591Z,20.24
2022-09-15T17:23:28.638Z,20.38
2022-09-15T17:26:00.009Z,20.51
2022-09-15T17:28:29.876Z,20.66
2022-09-15T17:31:08.284Z,20.69
2022-09-15T17:33:36.309Z,20.66
2022-09-15T17:36:04.915Z,20.58
2022-09-15T17:38:33.806Z,20.60
2022-09-15T17:41:02.066Z,20.56
2022-09-15T17:43:31.277Z,20.49
2022-09-15T17:45:59.470Z,20.42
2022-09-15T17:48:27.551Z,20.33
2022-09-15T17:50:55.565Z,20.36
2022-09-15T17:53:27.705Z,20.43
2022-09-15T17:55:56.719Z,20.54
2022-09-15T17:58:27.246Z,20.64
2022-09-15T18:00:55.418Z,20.85
2022-09-15T18:03:24.041Z,21.08
2022-09-15T18:05:52.745Z,21.19
2022-09-15T18:08:20.739Z,21.31
2022-09-15T18:10:49.077Z,21.38
2022-09-15T18:13:18.431Z,21.47
2022-09-15T18:15:46.789Z,21.62
2022-09-15T18:18:16.336Z,21.76
2022-09-15T18:20:44.675Z,21.88
2022-09-15T18:23:17.515Z,21.99
2022-09-15T18:25:46.011Z,21.97
2022-09-15T18:28:14.420Z,21.94
2022-09-15T18:30:44.937Z,21.96
2022-09-15T18:33:18.196Z,22.11
2022-09-15T18:35:46.579Z,22.21
2022-09-15T18:38:14.857Z,22.10
2022-09-15T18:41:01.226Z,22.19
2022-09-15T18:43:29.361Z,22.37
2022-09-15T18:46:00.873Z,22.54
2022-09-15T18:48:29.034Z,22.58
2022-09-15T18:50:57.322Z,22.62
2022-09-15T18:53:26.032Z,22.55
2022-09-15T18:55:54.066Z,22.44
2022-09-15T18:58:23.391Z,22.37
2022-09-15T19:00:51.421Z,22.29
2022-09-15T19:03:19.746Z,22.22
2022-09-15T19:05:47.742Z,22.21
2022-09-15T19:08:16.499Z,22.20
2022-09-15T19:10:45.187Z,22.18
2022-09-15T19:13:14.895Z,22.21
2022-09-15T19:15:44.902Z,22.21
2022-09-15T19:18:13.102Z,22.13
2022-09-15T19:20:41.496Z,22.17
2022-09-15T19:23:10.598Z,22.17
2022-09-15T19:25:38.653Z,22.10
2022-09-15T19:28:06.559Z,22.10
2022-09-15T19:30:34.594Z,22.08
2022-09-15T19:33:03.629Z,22.05
2022-09-15T19:35:31.606Z,21.98
2022-09-15T19:37:59.559Z,21.97
2022-09-15T19:40:27.622Z,22.09
2022-09-15T19:42:55.606Z,22.18
2022-09-15T19:45:23.489Z,22.29
2022-09-15T19:47:51.310Z,22.40
2022-09-15T19:50:19.372Z,22.44
2022-09-15T19:52:47.319Z,22.45
2022-09-15T19:55:15.279Z,22.37
2022-09-15T19:57:43.619Z,22.35
2022-09-15T20:00:15.479Z,22.26
2022-09-15T20:02:43.425Z,22.14
2022-09-15T20:05:14.738Z,22.07
2022-09-15T20:07:43.270Z,22.05
2022-09-15T20:10:11.420Z,22.03
2022-09-15T20:12:39.285Z,22.10
2022-09-15T20:15:08.265Z,22.23
2022-09-15T20:17:36.841Z,22.24
2022-09-15T20:20:05.078Z,22.37
2022-09-15T20:22:32.980Z,22.52
2022-09-15T20:25:00.899Z,22.64
2022-09-15T20:27:28.815Z,22.78
2022-09-15T20:29:58.184Z,22.86
2022-09-15T20:32:30.185Z,22.82
2022-09-15T20:34:58.159Z,22.84
2022-09-15T20:37:26.025Z,22.88
2022-09-15T20:39:54.056Z,22.92
2022-09-15T20:42:22.026Z,22.97
2022-09-15T20:44:50.028Z,23.20
2022-09-15T20:47:18.046Z,23.43
2022-09-15T20:49:46.002Z,23.63
2022-09-15T20:52:14.073Z,23.79
2022-09-15T20:54:42.030Z,23.90
2022-09-15T20:57:11.000Z,23.96
2022-09-15T20:59:38.996Z,23.94
2022-09-15T21:02:08.709Z,24.10
2022-09-15T21:04:36.737Z,24.37
2022-09-15T21:07:04.740Z,24.41
2022-09-15T21:09:32.815Z,24.40
2022-09-15T21:12:01.229Z,24.41
2022-09-15T21:14:29.194Z,24.43
2022-09-15T21:16:57.202Z,24.55
2022-09-15T21:19:25.241Z,24.73
2022-09-15T21:21:53.232Z,24.98
2022-09-15T21:24:24.219Z,25.02
2022-09-15T21:27:10.978Z,25.12
2022-09-15T21:29:39.006Z,25.12
2022-09-15T21:32:07.225Z,25.07
2022-09-15T21:34:35.152Z,25.08
2022-09-15T21:37:03.148Z,25.02
2022-09-15T21:39:31.144Z,25.13
2022-09-15T21:41:59.143Z,25.26
2022-09-15T21:44:26.990Z,25.29
2022-09-15T21:46:55.803Z,25.34
2022-09-15T21:49:23.799Z,25.50
2022-09-15T21:51:51.951Z,25.74
2022-09-15T21:54:19.946Z,25.81
2022-09-15T21:56:47.937Z,25.78
2022-09-15T21:59:15.921Z,25.67
2022-09-15T22:01:44.151Z,25.81
2022-09-15T22:04:12.219Z,25.96
2022-09-15T22:06:41.710Z,26.04
2022-09-15T22:09:15.462Z,26.10
2022-09-15T22:11:43.624Z,26.08
2022-09-15T22:14:12.826Z,26.15
2022-09-15T22:16:41.657Z,26.28
2022-09-15T22:19:10.932Z,26.49
2022-09-15T22:21:42.515Z,26.45
2022-09-15T22:24:11.789Z,26.25
2022-09-15T22:26:39.949Z,26.31
2022-09-15T22:29:08.239Z,26.33
2022-09-15T22:31:36.170Z,26.33
2022-09-15T22:34:04.674Z,25.99
2022-09-15T22:36:33.228Z,25.83
2022-09-15T22:39:05.447Z,25.77
2022-09-15T22:41:34.973Z,25.61
2022-09-15T22:44:03.452Z,25.56
2022-09-15T22:46:31.471Z,25.23
2022-09-15T22:48:59.629Z,24.82
2022-09-15T22:51:27.630Z,24.66
2022-09-15T22:53:57.867Z,24.31
2022-09-15T22:56:27.068Z,24.03
2022-09-15T22:58:55.396Z,23.79
2022-09-15T23:01:25.469Z,23.57
2022-09-15T23:03:54.480Z,23.38
2022-09-15T23:06:24.092Z,23.18
2022-09-15T23:08:52.857Z,23.03
2022-09-15T23:11:21.725Z,22.98
2022-09-15T23:13:49.870Z,22.89
2022-09-15T23:16:18.086Z,22.81
2022-09-15T23:18:46.185Z,22.81
2022-09-15T23:21:14.665Z,22.78
2022-09-15T23:23:44.151Z,22.61
2022-09-15T23:26:13.225Z,22.43
2022-09-15T23:28:41.556Z,22.22
2022-09-15T23:31:11.353Z,22.12
2022-09-15T23:33:39.316Z,22.04
2022-09-15T23:36:08.955Z,22.04
2022-09-15T23:38:37.555Z,22.02
2022-09-15T23:41:06.524Z,22.02
2022-09-15T23:43:34.826Z,21.95
2022-09-15T23:46:03.145Z,21.92
2022-09-15T23:48:32.633Z,21.93
2022-09-15T23:51:01.062Z,21.92
2022-09-15T23:53:29.080Z,21.94
2022-09-15T23:55:57.066Z,21.92
2022-09-15T23:58:25.019Z,21.89
